createdAt,value
2022-11-29T00:01:24.113Z,17.60
2022-11-29T00:03:52.240Z,18.38
2022-11-29T00:06:22.467Z,18.33
2022-11-29T00:08:50.697Z,16.23
2022-11-29T00:11:40.521Z,16.55
2022-11-29T00:14:12.323Z,16.27
2022-11-29T00:16:40.997Z,16.95
2022-11-29T00:19:09.599Z,16.42
2022-11-29T00:21:38.063Z,18.75
2022-11-29T00:24:06.824Z,17.17
2022-11-29T00:26:34.905Z,18.10
2022-11-29T00:29:02.839Z,18.45
2022-11-29T00:31:33.481Z,17.00
2022-11-29T00:34:03.685Z,17.80
2022-11-29T00:36:32.230Z,17.15
2022-11-29T00:39:00.227Z,17.58
2022-11-29T00:41:28.310Z,17.00
2022-11-29T00:43:56.502Z,18.50
2022-11-29T00:46:25.251Z,17.75
2022-11-29T00:48:54.659Z,16.48
2022-11-29T00:51:22.491Z,19.05
2022-11-29T00:53:50.709Z,17.48
2022-11-29T00:56:18.875Z,16.55
2022-11-29T00:58:48.544Z,18.05
2022-11-29T01:01:16.935Z,18.60
2022-11-29T01:03:44.957Z,19.73
2022-11-29T01:06:17.041Z,19.25
2022-11-29T01:08:45.755Z,18.83
2022-11-29T01:11:15.740Z,20.75
2022-11-29T01:13:45.415Z,18.88
2022-11-29T01:16:14.569Z,17.35
2022-11-29T01:18:43.296Z,18.52
2022-11-29T01:21:14.924Z,18.65
2022-11-29T01:23:43.457Z,16.95
2022-11-29T01:26:14.599Z,20.02
2022-11-29T01:28:42.923Z,18.17
2022-11-29T01:31:13.836Z,17.52
2022-11-29T01:33:42.693Z,16.00
2022-11-29T01:36:11.535Z,18.40
2022-11-29T01:38:42.517Z,19.40
2022-11-29T01:41:14.059Z,18.73
2022-11-29T01:44:01.329Z,19.73
2022-11-29T01:46:30.618Z,20.30
2022-11-29T01:49:01.819Z,19.38
2022-11-29T01:51:30.807Z,17.83
2022-11-29T01:54:00.874Z,19.27
2022-11-29T01:56:31.366Z,19.67
2022-11-29T01:58:59.592Z,17.02
2022-11-29T02:01:27.731Z,17.73
2022-11-29T02:03:56.081Z,18.05
2022-11-29T02:06:24.768Z,18.95
2022-11-29T02:08:52.807Z,18.10
2022-11-29T02:11:47.725Z,16.65
2022-11-29T02:14:38.753Z,18.08
2022-11-29T02:17:19.968Z,21.05
2022-11-29T02:20:23.988Z,27.15
2022-11-29T02:22:58.914Z,23.10
2022-11-29T02:25:49.502Z,22.65
2022-11-29T02:28:49.988Z,19.52
2022-11-29T02:31:50.141Z,22.05
2022-11-29T02:34:43.185Z,19.65
2022-11-29T02:37:24.820Z,20.92
2022-11-29T02:40:24.626Z,18.75
2022-11-29T02:43:41.616Z,22.48
2022-11-29T02:46:21.434Z,20.52
2022-11-29T02:49:04.349Z,21.25
2022-11-29T02:51:42.464Z,20.63
2022-11-29T02:54:19.811Z,20.00
2022-11-29T02:56:56.223Z,19.02
2022-11-29T02:59:40.866Z,18.98
2022-11-29T03:02:19.151Z,19.98
2022-11-29T03:04:52.095Z,18.75
2022-11-29T03:07:32.277Z,17.30
2022-11-29T03:10:10.159Z,20.98
2022-11-29T03:12:41.916Z,19.45
2022-11-29T03:15:20.655Z,17.88
2022-11-29T03:18:03.632Z,18.48
2022-11-29T03:20:46.392Z,16.70
2022-11-29T03:23:25.516Z,20.13
2022-11-29T03:25:58.863Z,18.58
2022-11-29T03:28:32.973Z,16.20
2022-11-29T03:31:08.781Z,17.48
2022-11-29T03:33:46.663Z,13.65
2022-11-29T03:36:22.787Z,14.90
2022-11-29T03:38:56.239Z,16.55
2022-11-29T03:41:29.443Z,20.20
2022-11-29T03:44:03.612Z,15.85
2022-11-29T03:46:39.398Z,15.52
2022-11-29T03:49:13.627Z,15.93
2022-11-29T03:51:55.776Z,16.55
2022-11-29T03:54:29.560Z,15.13
2022-11-29T03:56:58.131Z,18.55
2022-11-29T03:59:39.078Z,18.10
2022-11-29T04:02:48.232Z,18.45
2022-11-29T04:05:41.588Z,18.85
2022-11-29T04:08:42.464Z,18.08
2022-11-29T04:11:55.795Z,17.25
2022-11-29T04:14:34.971Z,17.48
2022-11-29T04:17:43.101Z,16.20
2022-11-29T04:20:42.032Z,15.02
2022-11-29T04:23:33.565Z,17.55
2022-11-29T04:26:29.687Z,16.90
2022-11-29T04:29:14.935Z,15.45
2022-11-29T04:32:02.684Z,17.90
2022-11-29T04:34:58.604Z,16.55
2022-11-29T04:37:55.926Z,15.85
2022-11-29T04:40:37.600Z,16.38
2022-11-29T04:43:20.948Z,17.27
2022-11-29T04:46:21.552Z,18.60
2022-11-29T04:49:20.241Z,16.00
2022-11-29T04:52:08.578Z,17.38
2022-11-29T04:54:44.594Z,15.32
2022-11-29T04:57:23.874Z,16.85
2022-11-29T05:00:01.337Z,17.00
2022-11-29T05:02:36.353Z,16.33
2022-11-29T05:05:19.663Z,16.10
2022-11-29T05:07:54.956Z,18.58
2022-11-29T05:10:29.943Z,17.38
2022-11-29T05:13:08.391Z,16.63
2022-11-29T05:15:56.921Z,17.88
2022-11-29T05:18:36.826Z,17.27
2022-11-29T05:21:12.415Z,16.23
2022-11-29T05:23:50.016Z,17.23
2022-11-29T05:26:27.094Z,17.85
2022-11-29T05:29:03.164Z,18.13
2022-11-29T05:31:46.863Z,18.05
2022-11-29T05:34:39.746Z,18.95
2022-11-29T05:37:23.187Z,17.52
2022-11-29T05:40:04.744Z,28.10
2022-11-29T05:43:05.276Z,21.13
2022-11-29T05:45:37.396Z,17.67
2022-11-29T05:48:12.231Z,18.42
2022-11-29T05:50:47.619Z,22.25
2022-11-29T05:53:24.747Z,23.30
2022-11-29T05:56:06.986Z,19.20
2022-11-29T05:58:43.398Z,18.25
2022-11-29T06:01:23.929Z,23.23
2022-11-29T06:04:01.374Z,39.30
2022-11-29T06:06:39.646Z,22.80
2022-11-29T06:09:16.213Z,20.95
2022-11-29T06:11:48.091Z,21.98
2022-11-29T06:14:34.301Z,23.13
2022-11-29T06:17:26.001Z,22.58
2022-11-29T06:20:11.172Z,21.92
2022-11-29T06:22:59.624Z,23.63
2022-11-29T06:25:47.285Z,20.83
2022-11-29T06:28:29.463Z,21.55
2022-11-29T06:31:03.905Z,21.67
2022-11-29T06:33:40.499Z,17.25
2022-11-29T06:36:17.817Z,20.42
2022-11-29T06:38:46.036Z,19.85
2022-11-29T06:41:20.599Z,18.85
2022-11-29T06:43:50.039Z,21.30
2022-11-29T06:46:28.132Z,19.15
2022-11-29T06:49:03.985Z,18.27
2022-11-29T06:51:38.313Z,17.27
2022-11-29T06:54:20.667Z,18.70
2022-11-29T06:57:04.154Z,18.75
2022-11-29T06:59:45.338Z,20.23
2022-11-29T07:02:28.944Z,20.42
2022-11-29T07:05:11.166Z,19.52
2022-11-29T07:07:40.157Z,19.92
2022-11-29T07:10:15.201Z,19.88
2022-11-29T07:12:45.814Z,21.15
2022-11-29T07:15:18.765Z,20.48
2022-11-29T07:17:58.749Z,20.88
2022-11-29T07:20:38.214Z,19.17
2022-11-29T07:23:14.681Z,24.42
2022-11-29T07:25:53.725Z,21.75
2022-11-29T07:28:37.290Z,16.92
2022-11-29T07:31:11.876Z,23.55
2022-11-29T07:33:50.985Z,24.63
2022-11-29T07:36:30.732Z,23.60
2022-11-29T07:39:11.522Z,24.63
2022-11-29T07:41:46.383Z,24.17
2022-11-29T07:44:28.631Z,28.08
2022-11-29T07:46:56.654Z,26.42
2022-11-29T07:49:24.764Z,25.90
2022-11-29T07:51:52.782Z,24.10
2022-11-29T07:54:22.139Z,23.60
2022-11-29T07:56:50.259Z,24.83
2022-11-29T07:59:20.207Z,27.00
2022-11-29T08:01:48.351Z,23.10
2022-11-29T08:04:17.161Z,21.90
2022-11-29T08:06:45.248Z,21.05
2022-11-29T08:09:13.162Z,19.08
2022-11-29T08:11:41.213Z,20.88
2022-11-29T08:14:09.505Z,20.67
2022-11-29T08:16:39.048Z,24.20
2022-11-29T08:19:07.215Z,24.60
2022-11-29T08:21:35.188Z,24.15
2022-11-29T08:24:03.133Z,22.60
2022-11-29T08:26:31.782Z,21.67
2022-11-29T08:28:59.961Z,23.17
2022-11-29T08:31:27.897Z,21.92
2022-11-29T08:33:57.396Z,25.95
2022-11-29T08:36:25.350Z,24.00
2022-11-29T08:39:01.268Z,23.58
2022-11-29T08:41:32.142Z,21.65
2022-11-29T08:44:00.213Z,20.65
2022-11-29T08:46:48.558Z,21.50
2022-11-29T08:49:18.467Z,23.60
2022-11-29T08:51:46.386Z,23.10
2022-11-29T08:54:13.505Z,22.52
2022-11-29T08:59:29.400Z,23.05
2022-11-29T09:01:57.452Z,23.55
2022-11-29T09:04:26.931Z,21.00
2022-11-29T09:06:54.948Z,23.10
2022-11-29T09:09:23.051Z,24.00
2022-11-29T09:11:52.225Z,21.65
2022-11-29T09:14:22.331Z,19.25
2022-11-29T09:16:50.351Z,24.48
2022-11-29T09:19:18.517Z,18.77
2022-11-29T09:21:47.941Z,20.80
2022-11-29T09:24:16.263Z,16.92
2022-11-29T09:26:48.245Z,17.65
2022-11-29T09:29:17.741Z,17.90
2022-11-29T09:31:46.071Z,20.23
2022-11-29T09:34:14.185Z,18.38
2022-11-29T09:36:44.226Z,19.85
2022-11-29T09:39:13.795Z,17.73
2022-11-29T09:41:58.493Z,20.55
2022-11-29T09:44:34.308Z,19.48
2022-11-29T09:47:18.176Z,19.50
2022-11-29T09:50:13.222Z,14.85
2022-11-29T09:52:51.731Z,15.95
2022-11-29T09:55:43.107Z,14.23
2022-11-29T09:58:18.049Z,14.30
2022-11-29T10:00:50.595Z,19.35
2022-11-29T10:03:25.537Z,15.80
2022-11-29T10:06:00.044Z,20.25
2022-11-29T10:08:34.115Z,15.32
2022-11-29T10:11:14.501Z,15.45
2022-11-29T10:13:46.664Z,17.55
2022-11-29T10:16:20.006Z,17.15
2022-11-29T10:18:52.544Z,15.45
2022-11-29T10:21:26.216Z,16.40
2022-11-29T10:23:58.773Z,17.73
2022-11-29T10:26:34.777Z,16.45
2022-11-29T10:29:04.038Z,17.98
2022-11-29T10:31:40.244Z,15.30
2022-11-29T10:34:14.367Z,16.00
2022-11-29T10:36:45.999Z,19.48
2022-11-29T10:39:22.405Z,17.38
2022-11-29T10:41:56.955Z,17.90
2022-11-29T10:44:26.054Z,18.95
2022-11-29T10:46:54.860Z,21.88
2022-11-29T10:49:27.479Z,20.65
2022-11-29T10:51:55.678Z,14.38
2022-11-29T10:54:35.015Z,14.05
2022-11-29T10:57:14.300Z,16.13
2022-11-29T10:59:42.612Z,22.48
2022-11-29T11:02:19.693Z,20.33
2022-11-29T11:04:50.316Z,21.63
2022-11-29T11:07:29.020Z,19.17
2022-11-29T11:09:58.904Z,16.92
2022-11-29T11:12:30.689Z,15.13
2022-11-29T11:15:27.695Z,19.38
2022-11-29T11:18:00.167Z,16.50
2022-11-29T11:20:31.552Z,17.77
2022-11-29T11:23:02.047Z,18.65
2022-11-29T11:25:34.763Z,17.35
2022-11-29T11:28:20.465Z,13.35
2022-11-29T11:30:53.520Z,14.38
2022-11-29T11:33:25.275Z,19.13
2022-11-29T11:36:09.741Z,15.20
2022-11-29T11:38:39.239Z,16.55
2022-11-29T11:41:17.989Z,17.60
2022-11-29T11:43:54.507Z,23.60
2022-11-29T11:46:22.655Z,24.30
2022-11-29T11:48:52.672Z,20.90
2022-11-29T11:51:24.303Z,19.02
2022-11-29T11:53:55.736Z,22.45
2022-11-29T11:56:26.256Z,23.83
2022-11-29T11:58:58.159Z,27.52
2022-11-29T12:01:30.796Z,23.40
2022-11-29T12:04:04.670Z,22.70
2022-11-29T12:06:48.018Z,15.20
2022-11-29T12:09:24.809Z,15.93
2022-11-29T12:12:01.505Z,22.13
2022-11-29T12:14:42.576Z,19.80
2022-11-29T12:17:20.114Z,19.70
2022-11-29T12:20:00.681Z,12.48
2022-11-29T12:22:34.080Z,14.23
2022-11-29T12:25:07.595Z,17.45
2022-11-29T12:27:35.592Z,17.17
2022-11-29T12:30:12.744Z,20.88
2022-11-29T12:33:01.160Z,28.25
2022-11-29T12:35:54.696Z,20.50
2022-11-29T12:38:50.075Z,17.67
2022-11-29T12:41:30.477Z,18.90
2022-11-29T12:44:08.194Z,18.88
2022-11-29T12:46:38.562Z,14.57
2022-11-29T12:49:17.383Z,17.70
2022-11-29T12:51:54.620Z,18.13
2022-11-29T12:54:41.442Z,22.83
2022-11-29T12:57:16.788Z,27.30
2022-11-29T13:00:05.359Z,25.13
2022-11-29T13:02:48.726Z,28.27
2022-11-29T13:05:25.243Z,22.13
2022-11-29T13:08:12.553Z,24.60
2022-11-29T13:10:57.032Z,24.70
2022-11-29T13:13:36.204Z,28.83
2022-11-29T13:16:10.150Z,15.68
2022-11-29T13:18:52.798Z,19.75
2022-11-29T13:21:28.942Z,26.40
2022-11-29T13:24:09.739Z,21.80
2022-11-29T13:26:40.140Z,26.00
2022-11-29T13:29:14.433Z,22.98
2022-11-29T13:31:43.207Z,18.17
2022-11-29T13:34:18.900Z,19.85
2022-11-29T13:36:55.293Z,20.00
2022-11-29T13:39:36.710Z,38.97
2022-11-29T13:42:08.761Z,28.63
2022-11-29T13:44:46.021Z,32.83
2022-11-29T13:47:15.782Z,29.23
2022-11-29T13:50:02.598Z,29.67
2022-11-29T13:52:43.047Z,25.90
2022-11-29T13:55:31.523Z,55.88
2022-11-29T13:58:22.280Z,57.47
2022-11-29T14:00:52.272Z,62.35
2022-11-29T14:03:31.589Z,72.13
2022-11-29T14:06:13.968Z,60.47
2022-11-29T14:09:22.174Z,68.38
2022-11-29T14:11:59.435Z,68.82
2022-11-29T14:14:32.009Z,77.90
2022-11-29T14:17:02.885Z,81.25
2022-11-29T14:19:34.308Z,43.55
2022-11-29T14:22:33.553Z,62.97
2022-11-29T14:25:21.720Z,60.17
2022-11-29T14:28:02.686Z,61.88
2022-11-29T14:30:46.511Z,43.78
2022-11-29T14:33:32.911Z,53.20
2022-11-29T14:36:14.519Z,57.97
2022-11-29T14:38:50.970Z,52.25
2022-11-29T14:41:28.683Z,40.67
2022-11-29T14:44:15.724Z,29.48
2022-11-29T14:46:44.181Z,35.20
2022-11-29T14:49:23.518Z,44.55
2022-11-29T14:52:17.949Z,41.15
2022-11-29T14:54:59.884Z,38.30
2022-11-29T14:58:06.264Z,42.15
2022-11-29T15:00:44.580Z,47.08
2022-11-29T15:03:16.637Z,44.22
2022-11-29T15:05:46.959Z,49.45
2022-11-29T15:08:21.979Z,44.53
2022-11-29T15:10:54.624Z,36.80
2022-11-29T15:13:27.200Z,51.10
2022-11-29T15:16:12.957Z,69.78
2022-11-29T15:19:03.014Z,65.65
2022-11-29T15:21:38.931Z,74.85
2022-11-29T15:24:11.992Z,67.82
2022-11-29T15:26:56.675Z,56.28
2022-11-29T15:29:25.307Z,37.33
2022-11-29T15:31:55.396Z,28.17
2022-11-29T15:34:31.590Z,34.72
2022-11-29T15:36:59.527Z,52.38
2022-11-29T15:39:30.860Z,52.28
2022-11-29T15:42:04.572Z,56.72
2022-11-29T15:44:33.939Z,55.35
2022-11-29T15:47:22.030Z,52.72
2022-11-29T15:49:50.762Z,53.05
2022-11-29T15:52:25.820Z,68.28
2022-11-29T15:55:00.085Z,62.45
2022-11-29T15:57:35.192Z,62.85
2022-11-29T16:00:07.167Z,52.63
2022-11-29T16:02:37.805Z,40.70
2022-11-29T16:05:15.855Z,27.02
2022-11-29T16:07:46.492Z,43.90
2022-11-29T16:10:17.970Z,44.75
2022-11-29T16:12:55.426Z,38.67
2022-11-29T16:15:30.725Z,36.20
2022-11-29T16:18:18.989Z,30.17
2022-11-29T16:21:00.293Z,26.25
2022-11-29T16:23:34.848Z,27.65
2022-11-29T16:26:08.277Z,17.30
2022-11-29T16:28:43.206Z,31.13
2022-11-29T16:31:18.020Z,26.15
2022-11-29T16:33:47.683Z,28.92
2022-11-29T16:36:19.988Z,22.55
2022-11-29T16:38:50.494Z,24.67
2022-11-29T16:41:33.548Z,27.42
2022-11-29T16:44:04.908Z,33.88
2022-11-29T16:46:40.052Z,58.08
2022-11-29T16:49:36.454Z,62.22
2022-11-29T16:52:18.641Z,63.10
2022-11-29T16:54:46.548Z,58.50
2022-11-29T16:57:14.534Z,43.83
2022-11-29T16:59:43.912Z,58.15
2022-11-29T17:02:12.625Z,45.92
2022-11-29T17:04:40.811Z,51.42
2022-11-29T17:07:13.886Z,51.15
2022-11-29T17:09:41.908Z,34.63
2022-11-29T17:12:14.229Z,35.88
2022-11-29T17:14:43.874Z,29.35
2022-11-29T17:17:14.873Z,26.30
2022-11-29T17:19:42.785Z,22.63
2022-11-29T17:22:10.608Z,28.23
2022-11-29T17:24:44.787Z,37.90
2022-11-29T17:27:15.366Z,56.05
2022-11-29T17:29:44.573Z,48.90
2022-11-29T17:32:12.416Z,25.50
2022-11-29T17:34:40.288Z,31.08
2022-11-29T17:37:08.184Z,27.27
2022-11-29T17:39:36.022Z,34.25
2022-11-29T17:42:03.878Z,29.30
2022-11-29T17:44:33.969Z,33.10
2022-11-29T17:47:04.628Z,26.92
2022-11-29T17:49:32.442Z,28.38
2022-11-29T17:52:00.223Z,32.47
2022-11-29T17:54:28.072Z,35.90
2022-11-29T17:56:56.427Z,40.38
2022-11-29T17:59:24.366Z,45.33
2022-11-29T18:01:52.391Z,43.70
2022-11-29T18:04:21.978Z,51.10
2022-11-29T18:06:50.683Z,50.58
2022-11-29T18:09:20.004Z,39.92
2022-11-29T18:11:58.595Z,47.40
2022-11-29T18:14:29.325Z,34.70
2022-11-29T18:17:01.036Z,36.00
2022-11-29T18:19:31.368Z,35.53
2022-11-29T18:21:59.230Z,35.03
2022-11-29T18:24:27.049Z,39.95
2022-11-29T18:26:54.902Z,41.58
2022-11-29T18:29:23.193Z,36.45
2022-11-29T18:31:51.790Z,34.58
2022-11-29T18:34:19.653Z,34.35
2022-11-29T18:36:49.803Z,36.47
2022-11-29T18:39:20.318Z,33.38
2022-11-29T18:41:50.358Z,30.88
2022-11-29T18:44:20.275Z,33.30
2022-11-29T18:46:48.770Z,30.48
2022-11-29T18:49:18.323Z,30.17
2022-11-29T18:51:48.446Z,29.10
2022-11-29T18:54:17.830Z,31.63
2022-11-29T18:56:46.635Z,32.33
2022-11-29T18:59:17.916Z,31.55
2022-11-29T19:01:48.020Z,34.58
2022-11-29T19:04:18.310Z,32.63
2022-11-29T19:06:46.968Z,30.83
2022-11-29T19:09:20.967Z,32.53
2022-11-29T19:11:49.774Z,36.25
2022-11-29T19:14:18.052Z,41.53
2022-11-29T19:16:47.580Z,34.83
2022-11-29T19:19:15.464Z,37.25
2022-11-29T19:21:43.567Z,46.35
2022-11-29T19:24:15.143Z,52.28
2022-11-29T19:26:46.001Z,38.97
2022-11-29T19:29:14.534Z,40.10
2022-11-29T19:31:43.069Z,38.08
2022-11-29T19:34:11.266Z,36.42
2022-11-29T19:36:43.588Z,33.85
2022-11-29T19:39:14.306Z,33.78
2022-11-29T19:41:45.541Z,30.27
2022-11-29T19:44:13.779Z,36.35
2022-11-29T19:46:45.751Z,39.65
2022-11-29T19:49:15.528Z,48.08
2022-11-29T19:51:44.196Z,43.72
2022-11-29T19:54:12.945Z,37.67
2022-11-29T19:56:41.136Z,36.80
2022-11-29T19:59:10.553Z,35.53
2022-11-29T20:01:42.395Z,33.90
2022-11-29T20:04:12.036Z,42.75
2022-11-29T20:06:40.119Z,36.88
2022-11-29T20:09:08.282Z,40.58
2022-11-29T20:11:36.291Z,36.63
2022-11-29T20:14:08.540Z,33.53
2022-11-29T20:16:39.877Z,28.90
2022-11-29T20:19:12.231Z,39.60
2022-11-29T20:21:44.130Z,39.80
2022-11-29T20:24:14.628Z,43.60
2022-11-29T20:26:44.556Z,31.73
2022-11-29T20:29:13.637Z,43.45
2022-11-29T20:31:49.546Z,34.63
2022-11-29T20:34:21.889Z,36.95
2022-11-29T20:37:17.175Z,42.95
2022-11-29T20:39:51.293Z,45.13
2022-11-29T20:42:43.977Z,50.35
2022-11-29T20:45:14.406Z,52.90
2022-11-29T20:47:50.523Z,35.75
2022-11-29T20:50:23.131Z,37.10
2022-11-29T20:53:06.345Z,36.03
2022-11-29T20:55:38.704Z,36.97
2022-11-29T20:58:08.334Z,33.72
2022-11-29T21:00:36.785Z,32.50
2022-11-29T21:03:05.979Z,33.70
2022-11-29T21:05:33.997Z,32.72
2022-11-29T21:08:03.027Z,33.97
2022-11-29T21:10:31.027Z,31.10
2022-11-29T21:12:59.448Z,33.15
2022-11-29T21:15:28.215Z,32.60
2022-11-29T21:17:56.739Z,29.88
2022-11-29T21:20:28.499Z,29.77
2022-11-29T21:23:02.911Z,30.33
2022-11-29T21:25:43.126Z,28.23
2022-11-29T21:28:14.465Z,27.95
2022-11-29T21:30:43.034Z,32.05
2022-11-29T21:33:12.067Z,37.33
2022-11-29T21:35:41.621Z,38.40
2022-11-29T21:38:14.514Z,33.75
2022-11-29T21:40:42.380Z,34.28
2022-11-29T21:43:10.262Z,33.53
2022-11-29T21:45:38.145Z,39.70
2022-11-29T21:48:29.707Z,32.75
2022-11-29T21:50:58.881Z,33.40
2022-11-29T21:53:27.893Z,35.70
2022-11-29T21:55:59.224Z,35.83
2022-11-29T21:58:27.849Z,36.50
2022-11-29T22:00:55.780Z,34.60
2022-11-29T22:03:23.707Z,35.45
2022-11-29T22:05:51.635Z,33.75
2022-11-29T22:08:21.068Z,33.72
2022-11-29T22:10:48.944Z,32.38
2022-11-29T22:13:16.852Z,31.98
2022-11-29T22:15:45.069Z,32.60
2022-11-29T22:18:12.980Z,28.95
2022-11-29T22:20:40.890Z,32.63
2022-11-29T22:23:08.723Z,34.05
2022-11-29T22:25:37.899Z,29.77
2022-11-29T22:28:05.791Z,27.15
2022-11-29T22:30:33.581Z,32.10
2022-11-29T22:33:01.747Z,31.63
2022-11-29T22:35:29.597Z,32.58
2022-11-29T22:37:57.535Z,32.10
2022-11-29T22:40:25.470Z,37.45
2022-11-29T22:42:54.938Z,33.08
2022-11-29T22:45:22.711Z,34.03
2022-11-29T22:47:50.544Z,38.65
2022-11-29T22:50:18.469Z,36.08
2022-11-29T22:52:46.424Z,33.97
2022-11-29T22:55:14.326Z,30.35
2022-11-29T22:57:42.135Z,28.23
2022-11-29T23:00:13.897Z,31.70
2022-11-29T23:02:41.783Z,34.60
2022-11-29T23:05:09.856Z,31.38
2022-11-29T23:07:37.734Z,32.33
2022-11-29T23:10:06.457Z,29.65
2022-11-29T23:12:34.255Z,30.85
2022-11-29T23:15:02.780Z,27.65
2022-11-29T23:17:31.957Z,30.58
2022-11-29T23:19:59.730Z,26.98
2022-11-29T23:22:27.846Z,25.73
2022-11-29T23:24:55.719Z,24.58
2022-11-29T23:27:24.004Z,27.63
2022-11-29T23:29:51.808Z,27.25
2022-11-29T23:32:19.647Z,25.02
2022-11-29T23:34:49.289Z,26.38
2022-11-29T23:37:17.151Z,27.23
2022-11-29T23:39:45.015Z,29.30
2022-11-29T23:42:12.808Z,28.65
2022-11-29T23:44:40.594Z,25.38
2022-11-29T23:47:08.427Z,27.10
2022-11-29T23:49:39.781Z,26.80
2022-11-29T23:52:08.962Z,29.63
2022-11-29T23:54:36.890Z,29.23
2022-11-29T23:57:04.827Z,29.38
2022-11-29T23:59:32.698Z,29.42
